Flight Track Log - Related Links

Times and Time Zones

All times are in EDT time to prevent confusion due to time zone crossing. See the EJA610 flight status page for this flight to view local times or setup timezone preferences in your user account.

Time Position Orientation Groundspeed Altitude Reporting Facility
EDT Latitude Longitude Course Direction KTS MPH feet Rate Location/Type
Wed 05:42:07 PM 32.3281 -88.5467 69° East 330 380 11,800  Level Atlanta Center
Wed 05:43:07 PM 32.3633 -88.4378 69° East 340 391 12,100 550 Climbing Atlanta Center
Wed 05:44:07 PM 32.3569 -88.3194 94° East 346 398 12,900 1,400 Climbing Atlanta Center
Wed 05:45:07 PM 32.3486 -88.2011 95° East 351 404 14,900 1,950 Climbing Atlanta Center
Wed 05:46:07 PM 32.3083 -88.0936 114° Southeast 341 392 16,800 1,733 Climbing Atlanta Center
Wed 05:48:07 PM 32.2108 -87.8731 118° Southeast 370 426 20,100 1,700 Climbing Atlanta Center
Wed 05:49:07 PM 32.1600 -87.7631 119° Southeast 382 440 21,900 1,450 Climbing Atlanta Center
Wed 05:50:07 PM 32.1072 -87.6456 118° Southeast 392 451 23,000 1,100 Climbing Atlanta Center
Wed 05:51:07 PM 32.0522 -87.5258 118° Southeast 415 478 24,100 1,350 Climbing Atlanta Center
Wed 05:52:07 PM 31.9972 -87.4036 118° Southeast 415 478 25,700 1,600 Climbing Atlanta Center
Wed 05:53:07 PM 31.9458 -87.2892 118° Southeast 415 478 27,300 1,650 Climbing Atlanta Center
Wed 05:54:07 PM 31.8906 -87.1722 119° Southeast 410 472 29,000 1,650 Climbing Atlanta Center
Wed 05:55:07 PM 31.8328 -87.0603 121° Southeast 410 472 30,600 1,600 Climbing Atlanta Center
Wed 05:56:07 PM 31.7625 -86.9503 127° Southeast 410 472 32,200 1,646 Climbing Atlanta Center
Wed 05:57:51 PM 31.6442 -86.7581 126° Southeast 403 464 35,100 1,600 Climbing Jacksonville Center
Wed 05:58:52 PM 31.5764 -86.6503 126° Southeast 403 464 36,600 1,350 Climbing Jacksonville Center
Wed 05:59:51 PM 31.5067 -86.5353 125° Southeast 414 476 37,800 1,109 Climbing Jacksonville Center
Wed 06:00:51 PM 31.4347 -86.4181 126° Southeast 426 490 38,800 600 Climbing Jacksonville Center
Wed 06:01:51 PM 31.3608 -86.3011 126° Southeast 436 502 39,000 99 Climbing Jacksonville Center
Wed 06:02:52 PM 31.2847 -86.1767 126° Southeast 456 525 39,000  Level Jacksonville Center
Wed 06:03:52 PM 31.2064 -86.0550 127° Southeast 468 539 39,000  Level Jacksonville Center
Wed 06:04:52 PM 31.1281 -85.9311 126° Southeast 468 539 39,000  Level Jacksonville Center
Wed 06:05:51 PM 31.0478 -85.7928 124° Southeast 468 539 39,000  Level Jacksonville Center
Wed 06:06:52 PM 30.9711 -85.6739 127° Southeast 468 539 39,000  Level Jacksonville Center
Wed 06:07:51 PM 30.8922 -85.5483 126° Southeast 468 539 39,000  Level Jacksonville Center
Wed 06:08:51 PM 30.8156 -85.4275 126° Southeast 468 539 39,000  Level Jacksonville Center
Wed 06:09:51 PM 30.7383 -85.3072 127° Southeast 468 539 39,000  Level Jacksonville Center
Wed 06:10:52 PM 30.6714 -85.2017 126° Southeast 468 539 39,000  Level Jacksonville Center
Wed 06:11:52 PM 30.5942 -85.0814 127° Southeast 468 539 39,000  Level Jacksonville Center
Wed 06:12:51 PM 30.5169 -84.9592 126° Southeast 468 539 39,000  Level Jacksonville Center
Wed 06:13:52 PM 30.4394 -84.8417 127° Southeast 468 539 39,000  Level Jacksonville Center
Wed 06:14:51 PM 30.3600 -84.7197 127° Southeast 468 539 39,000  Level Jacksonville Center
Wed 06:15:52 PM 30.2842 -84.6006 126° Southeast 468 539 39,000  Level Jacksonville Center
Wed 06:16:51 PM 30.2044 -84.4789 127° Southeast 468 539 39,000  Level Jacksonville Center
Wed 06:17:51 PM 30.1286 -84.3622 127° Southeast 468 539 39,000  Level Jacksonville Center
Wed 06:18:51 PM 30.0486 -84.2411 127° Southeast 468 539 39,000  Level Jacksonville Center
Wed 06:19:52 PM 29.9642 -84.1128 127° Southeast 468 539 39,000  Level Jacksonville Center
Wed 06:20:52 PM 29.8839 -83.9922 128° Southeast 468 539 39,000  Level Jacksonville Center
Wed 06:21:52 PM 29.7992 -83.8833 132° Southeast 463 533 39,000 -50 Level Jacksonville Center
Wed 06:22:52 PM 29.6869 -83.8106 151° Southeast 449 517 38,900 -800 Descending Jacksonville Center
Wed 06:23:52 PM 29.5769 -83.7403 151° Southeast 456 525 37,400 -958 Descending Jacksonville Center
Wed 06:24:51 PM 29.4708 -83.6750 152° Southeast 451 519 37,000 -202 Descending Jacksonville Center
Wed 06:25:51 PM 29.3606 -83.6025 150° Southeast 446 513 37,000  Level Jacksonville Center
Wed 06:26:52 PM 29.2608 -83.5378 150° Southeast 453 521 37,000  Level Jacksonville Center
Wed 06:27:51 PM 29.1461 -83.4656 151° Southeast 453 521 37,000  Level Jacksonville Center
Wed 06:28:52 PM 29.0381 -83.3961 151° Southeast 453 521 37,000  Level Jacksonville Center
Wed 06:29:52 PM 28.9233 -83.3386 156° South 448 516 37,000  Level Jacksonville Center
Wed 06:30:51 PM 28.8044 -83.3428 182° South 426 490 37,000  Level Jacksonville Center
Wed 06:31:52 PM 28.6875 -83.3517 184° South 426 490 37,000 -642 Level Jacksonville Center
Wed 06:33:58 PM 28.4286 -83.3586 181° South 431 496 35,000 -649 Descending Miami Center
Wed 06:34:57 PM 28.3097 -83.3611 181° South 436 502 35,000  Level Miami Center
Wed 06:35:57 PM 28.1989 -83.3714 185° South 442 509 35,000  Level Miami Center
Wed 06:36:57 PM 28.0797 -83.3739 181° South 442 509 35,000 -694 Level Miami Center
Wed 06:37:58 PM 27.9550 -83.3689 178° South 442 509 33,600 -1,650 Descending Miami Center
Wed 06:38:57 PM 27.8319 -83.3642 178° South 447 514 31,700 -1,700 Descending Miami Center
Wed 06:39:58 PM 27.7092 -83.3594 178° South 440 506 30,200 -1,700 Descending Miami Center
Wed 06:40:57 PM 27.6036 -83.2950 152° Southeast 434 499 28,300 -1,950 Descending Miami Center
Wed 06:41:58 PM 27.5075 -83.2031 140° Southeast 430 495 26,300 -1,884 Descending Miami Center
Wed 06:42:58 PM 27.4094 -83.1089 140° Southeast 445 512 24,500 -1,800 Descending Miami Center
Wed 06:43:58 PM 27.3153 -83.0219 141° Southeast 451 519 22,700 -1,815 Descending Miami Center
Wed 06:44:57 PM 27.2269 -82.9356 139° Southeast 441 507 20,900 -1,815 Descending Miami Center
Wed 06:45:57 PM 27.1367 -82.8517 140° Southeast 436 502 19,100 -1,736 Descending Miami Center
Wed 06:46:58 PM 27.0525 -82.7681 138° Southeast 424 488 17,400 -1,636 Descending Miami Center
Wed 06:47:58 PM 26.9700 -82.6939 141° Southeast 398 458 15,800 -1,400 Descending Miami Center
Wed 06:48:58 PM 26.8956 -82.6228 140° Southeast 381 438 14,600 -1,200 Descending Miami Center
Wed 06:49:58 PM 26.8192 -82.5492 139° Southeast 369 425 13,400 -1,200 Descending Miami Center
Wed 06:50:58 PM 26.7386 -82.4733 140° Southeast 364 419 12,200 -1,250 Descending Miami Center
Wed 06:51:58 PM 26.6706 -82.3981 135° Southeast 359 413 10,900 -1,361 Descending Miami Center
Wed 06:52:57 PM 26.5956 -82.3433 147° Southeast 340 391 9,500 -1,664 Descending Miami Center
Wed 06:53:57 PM 26.5325 -82.2986 148° Southeast 300 345 7,600 -1,950 Descending Miami Center
Wed 06:54:57 PM 26.4714 -82.2564 148° Southeast 277 319 5,600 -1,339 Descending Miami Center
Wed 06:55:58 PM 26.4125 -82.2119 146° Southeast 264 304 4,900 -347 Descending Miami Center
Wed 06:56:58 PM 26.3514 -82.1722 150° Southeast 258 297 4,900  Level Miami Center
Wed 06:57:58 PM 26.2903 -82.1256 146° Southeast 258 297 4,900  Level Miami Center
Wed 06:59:00 PM 26.1952 -82.0571 152° Southeast  Level FlightAware Approximate
Wed 07:06:00 PM 26.1524 -81.7756 66° East  Level Estimated
Wed 07:07:00 PM 26.1524 -81.7756 66° East  Level Estimated
Wed 07:08:00 PM 26.1524 -81.7756 66° East  Level Estimated
Wed 07:09:00 PM 26.1524 -81.7756 66° East  Level Estimated
Wed 07:10:00 PM 26.1524 -81.7756 66° East  Level Estimated
Wed 07:11:00 PM 26.1524 -81.7756 66° East  Level Estimated
Wed 07:12:00 PM 26.1524 -81.7756 66° East  Level Estimated

Login

Don't have an account? Register now (free) for customized features, flight alerts, and more!